createdAt,value
2023-05-01T00:01:40.475Z,4.37
2023-05-01T00:06:42.462Z,4.80
2023-05-01T00:11:44.452Z,4.63
2023-05-01T00:16:46.360Z,4.63
2023-05-01T00:21:48.458Z,4.15
2023-05-01T00:26:50.487Z,3.90
2023-05-01T00:31:52.438Z,4.07
2023-05-01T00:36:54.385Z,3.67
2023-05-01T00:41:56.223Z,3.93
2023-05-01T00:46:58.184Z,3.50
2023-05-01T00:52:00.148Z,3.23
2023-05-01T00:57:02.167Z,2.30
2023-05-01T01:02:04.080Z,3.50
2023-05-01T01:07:19.518Z,3.40
2023-05-01T01:12:27.115Z,2.97
2023-05-01T01:17:47.676Z,3.03
2023-05-01T01:23:18.644Z,2.67
2023-05-01T01:28:43.185Z,3.03
2023-05-01T01:34:19.191Z,3.50
2023-05-01T01:39:30.200Z,3.05
2023-05-01T01:44:41.648Z,3.55
2023-05-01T01:49:47.110Z,3.50
2023-05-01T01:54:54.492Z,3.75
2023-05-01T01:59:56.568Z,3.78
2023-05-01T02:04:58.597Z,3.65
2023-05-01T02:10:01.114Z,3.40
2023-05-01T02:15:03.128Z,3.63
2023-05-01T02:20:06.856Z,3.65
2023-05-01T02:25:12.898Z,3.80
2023-05-01T02:30:14.985Z,3.42
2023-05-01T02:35:16.777Z,3.40
2023-05-01T02:40:18.722Z,3.37
2023-05-01T02:45:22.819Z,3.10
2023-05-01T02:50:24.652Z,3.35
2023-05-01T02:55:26.801Z,3.50
2023-05-01T03:00:28.771Z,2.88
2023-05-01T03:05:30.599Z,3.00
2023-05-01T03:10:32.454Z,2.93
2023-05-01T03:15:34.279Z,2.70
2023-05-01T03:20:36.088Z,2.40
2023-05-01T03:25:37.949Z,2.70
2023-05-01T03:30:39.935Z,2.80
2023-05-01T03:35:41.902Z,2.70
2023-05-01T03:40:44.289Z,2.70
2023-05-01T03:45:46.311Z,2.70
2023-05-01T03:50:48.203Z,3.00
2023-05-01T03:55:50.162Z,2.70
2023-05-01T04:00:52.350Z,3.17
2023-05-01T04:05:54.338Z,3.65
2023-05-01T04:10:56.195Z,3.22
2023-05-01T04:15:58.143Z,4.03
2023-05-01T04:21:00.147Z,3.60
2023-05-01T04:26:02.036Z,3.70
2023-05-01T04:31:03.913Z,4.10
2023-05-01T04:36:06.024Z,4.30
2023-05-01T04:41:07.940Z,4.25
2023-05-01T04:46:09.800Z,4.47
2023-05-01T04:51:11.749Z,4.83
2023-05-01T04:56:13.620Z,4.73
2023-05-01T05:01:15.621Z,5.33
2023-05-01T05:06:17.544Z,4.97
2023-05-01T05:11:19.547Z,5.30
2023-05-01T05:16:21.489Z,4.65
2023-05-01T05:21:23.443Z,5.07
2023-05-01T05:26:25.482Z,5.05
2023-05-01T05:31:27.420Z,4.97
2023-05-01T05:36:29.285Z,5.30
2023-05-01T05:41:31.112Z,4.82
2023-05-01T05:46:33.131Z,4.93
2023-05-01T05:51:35.062Z,4.50
2023-05-01T05:56:36.978Z,5.00
2023-05-01T06:01:38.886Z,4.83
2023-05-01T06:06:40.908Z,5.07
2023-05-01T06:11:42.892Z,5.22
2023-05-01T06:16:44.823Z,4.35
2023-05-01T06:21:46.755Z,4.80
2023-05-01T06:26:48.674Z,5.95
2023-05-01T06:31:50.649Z,4.15
2023-05-01T06:36:52.456Z,3.80
2023-05-01T06:41:54.330Z,3.77
2023-05-01T06:46:56.371Z,3.70
2023-05-01T06:51:58.170Z,4.10
2023-05-01T06:56:59.992Z,4.23
2023-05-01T07:02:01.991Z,3.92
2023-05-01T07:07:03.877Z,3.45
2023-05-01T07:12:06.292Z,3.80
2023-05-01T07:22:09.749Z,3.72
2023-05-01T07:27:11.621Z,3.55
2023-05-01T07:32:13.571Z,3.30
2023-05-01T07:37:15.531Z,3.38
2023-05-01T07:42:17.396Z,3.10
2023-05-01T07:47:19.272Z,3.22
2023-05-01T07:57:22.753Z,2.90
2023-05-01T08:02:24.683Z,2.92
2023-05-01T08:12:30.950Z,3.08
2023-05-01T08:17:32.848Z,3.00
2023-05-01T08:22:34.819Z,2.97
2023-05-01T08:27:36.759Z,3.35
2023-05-01T08:32:38.657Z,3.80
2023-05-01T08:37:40.569Z,3.33
2023-05-01T08:42:42.386Z,3.22
2023-05-01T08:47:44.366Z,3.75
2023-05-01T08:52:46.362Z,3.05
2023-05-01T08:57:48.614Z,3.55
2023-05-01T09:02:51.061Z,3.08
2023-05-01T09:07:53.044Z,3.30
2023-05-01T09:12:56.554Z,3.17
2023-05-01T09:18:02.366Z,3.35
2023-05-01T09:23:05.312Z,2.92
2023-05-01T09:28:07.243Z,3.08
2023-05-01T09:33:13.594Z,2.65
2023-05-01T09:38:22.794Z,2.85
2023-05-01T09:43:28.372Z,3.20
2023-05-01T09:48:31.988Z,2.95
2023-05-01T09:53:38.718Z,3.03
2023-05-01T09:58:40.707Z,3.00
2023-05-01T10:03:43.766Z,3.47
2023-05-01T10:08:49.355Z,2.92
2023-05-01T10:14:10.072Z,3.42
2023-05-01T10:19:12.154Z,2.75
2023-05-01T10:24:14.026Z,2.60
2023-05-01T10:29:15.944Z,2.67
2023-05-01T10:34:18.378Z,2.97
2023-05-01T10:44:34.602Z,2.17
2023-05-01T10:50:04.869Z,2.40
2023-05-01T10:55:34.525Z,2.40
2023-05-01T11:00:36.329Z,2.72
2023-05-01T11:06:00.057Z,2.00
2023-05-01T11:11:20.649Z,2.17
2023-05-01T11:16:37.803Z,2.20
2023-05-01T11:21:40.105Z,2.15
2023-05-01T11:26:42.499Z,2.40
2023-05-01T11:31:44.552Z,2.00
2023-05-01T11:36:50.347Z,2.00
2023-05-01T11:41:52.352Z,1.83
2023-05-01T11:46:56.572Z,2.00
2023-05-01T11:51:58.831Z,3.22
2023-05-01T11:57:00.769Z,1.90
2023-05-01T12:02:02.701Z,1.83
2023-05-01T12:07:04.599Z,2.00
2023-05-01T12:12:06.540Z,2.15
2023-05-01T12:17:08.525Z,2.37
2023-05-01T12:22:10.401Z,2.50
2023-05-01T12:27:12.351Z,2.80
2023-05-01T12:32:15.006Z,2.60
2023-05-01T12:42:18.485Z,2.63
2023-05-01T12:47:20.380Z,2.60
2023-05-01T12:52:26.520Z,2.80
2023-05-01T12:57:28.461Z,2.80
2023-05-01T13:02:31.403Z,1.67
2023-05-01T13:07:33.280Z,2.38
2023-05-01T13:12:35.223Z,2.30
2023-05-01T13:17:37.151Z,2.70
2023-05-01T13:22:39.228Z,2.40
2023-05-01T13:27:41.849Z,2.70
2023-05-01T13:37:45.421Z,2.30
2023-05-01T13:42:47.197Z,2.27
2023-05-01T13:47:49.941Z,2.67
2023-05-01T13:52:51.876Z,2.08
2023-05-01T13:57:53.696Z,1.80
2023-05-01T14:02:55.723Z,2.40
2023-05-01T14:07:58.344Z,2.38
2023-05-01T14:18:05.646Z,1.80
2023-05-01T14:23:07.579Z,2.10
2023-05-01T14:28:09.519Z,1.80
2023-05-01T14:33:12.513Z,1.83
2023-05-01T14:38:14.859Z,2.08
2023-05-01T14:43:18.009Z,2.00
2023-05-01T14:48:23.894Z,2.00
2023-05-01T14:53:26.293Z,1.90
2023-05-01T14:58:28.137Z,1.90
2023-05-01T15:03:30.213Z,1.97
2023-05-01T15:08:32.188Z,2.22
2023-05-01T15:13:34.107Z,2.28
2023-05-01T15:18:36.010Z,2.20
2023-05-01T15:23:37.813Z,2.20
2023-05-01T15:28:39.711Z,2.10
2023-05-01T15:33:41.660Z,2.30
2023-05-01T15:38:43.552Z,2.00
2023-05-01T15:43:45.421Z,2.30
2023-05-01T15:48:47.287Z,2.20
2023-05-01T15:53:51.591Z,2.03
2023-05-01T15:58:53.473Z,2.22
2023-05-01T16:03:55.510Z,2.40
2023-05-01T16:09:00.382Z,2.47
2023-05-01T16:14:02.445Z,2.88
2023-05-01T16:19:04.419Z,2.60
2023-05-01T16:24:06.446Z,2.65
2023-05-01T16:29:08.482Z,2.90
2023-05-01T16:34:14.318Z,2.55
2023-05-01T16:39:17.334Z,2.55
2023-05-01T16:44:20.092Z,2.60
2023-05-01T16:49:25.494Z,2.50
2023-05-01T16:54:27.632Z,2.58
2023-05-01T16:59:29.549Z,2.80
2023-05-01T17:04:31.435Z,2.15
2023-05-01T17:09:33.494Z,2.30
2023-05-01T17:14:35.434Z,2.17
2023-05-01T17:19:37.782Z,2.70
2023-05-01T17:24:39.759Z,2.40
2023-05-01T17:29:41.738Z,2.17
2023-05-01T17:34:43.612Z,1.58
2023-05-01T17:39:45.533Z,2.80
2023-05-01T17:44:47.403Z,2.60
2023-05-01T17:49:49.301Z,2.03
2023-05-01T17:54:51.141Z,2.77
2023-05-01T17:59:53.001Z,2.50
2023-05-01T18:04:54.861Z,2.60
2023-05-01T18:10:00.050Z,2.63
2023-05-01T18:15:02.264Z,2.53
2023-05-01T18:20:06.608Z,2.40
2023-05-01T18:25:09.070Z,3.10
2023-05-01T18:30:11.245Z,2.20
2023-05-01T18:35:13.142Z,1.98
2023-05-01T18:40:15.224Z,2.17
2023-05-01T18:45:17.154Z,1.90
2023-05-01T18:50:19.441Z,2.10
2023-05-01T18:55:21.374Z,1.75
2023-05-01T19:00:23.304Z,1.52
2023-05-01T19:05:25.327Z,1.87
2023-05-01T19:10:27.634Z,1.80
2023-05-01T19:15:29.568Z,1.85
2023-05-01T19:20:31.518Z,1.80
2023-05-01T19:25:33.482Z,2.00
2023-05-01T19:30:35.342Z,1.50
2023-05-01T19:35:37.360Z,1.60
2023-05-01T19:40:39.537Z,1.60
2023-05-01T19:45:42.351Z,1.73
2023-05-01T19:50:44.511Z,1.45
2023-05-01T19:55:48.019Z,1.70
2023-05-01T20:00:50.258Z,1.90
2023-05-01T20:05:52.284Z,1.63
2023-05-01T20:10:54.233Z,1.83
2023-05-01T20:15:56.304Z,1.30
2023-05-01T20:20:58.339Z,2.10
2023-05-01T20:26:00.727Z,1.98
2023-05-01T20:31:02.721Z,1.80
2023-05-01T20:36:05.675Z,1.77
2023-05-01T20:41:07.565Z,1.85
2023-05-01T20:46:09.515Z,2.03
2023-05-01T20:51:11.487Z,1.90
2023-05-01T20:56:13.342Z,2.10
2023-05-01T21:01:16.781Z,2.13
2023-05-01T21:06:18.784Z,2.30
2023-05-01T21:11:20.771Z,2.50
2023-05-01T21:16:22.800Z,1.77
2023-05-01T21:21:24.785Z,2.08
2023-05-01T21:26:26.714Z,2.37
2023-05-01T21:31:30.510Z,1.90
2023-05-01T21:36:32.648Z,1.98
2023-05-01T21:41:34.534Z,2.10
2023-05-01T21:46:36.495Z,2.30
2023-05-01T21:51:39.265Z,2.30
2023-05-01T21:56:41.200Z,2.30
2023-05-01T22:01:43.124Z,2.30
2023-05-01T22:06:45.148Z,2.37
2023-05-01T22:11:47.181Z,1.70
2023-05-01T22:16:49.230Z,1.88
2023-05-01T22:21:51.151Z,2.88
2023-05-01T22:26:53.086Z,2.03
2023-05-01T22:31:55.057Z,2.07
2023-05-01T22:36:57.041Z,2.30
2023-05-01T22:41:59.084Z,2.07
2023-05-01T22:47:01.088Z,2.10
2023-05-01T22:52:03.260Z,2.17
2023-05-01T22:57:05.220Z,2.22
2023-05-01T23:02:07.258Z,1.90
2023-05-01T23:07:09.206Z,2.00
2023-05-01T23:12:16.979Z,2.10
2023-05-01T23:17:19.044Z,1.90
2023-05-01T23:22:20.902Z,2.10
2023-05-01T23:27:22.867Z,2.00
2023-05-01T23:32:29.023Z,1.20
2023-05-01T23:37:31.065Z,1.77
2023-05-01T23:42:33.011Z,1.47
2023-05-01T23:47:34.990Z,2.10
2023-05-01T23:52:36.955Z,1.45
2023-05-01T23:57:38.874Z,1.80
